X  Lukk Metar værinformasjon om luftfart     KILM Wilmington International Airport
Temperatur
75°F Temperatur
64°F Duggpunkt
69% Luftfuktighet



Vind
0 MPT
0 KM/T
0 M/S
0 KNP



Stille
N
Nåværende forhold

Delvis overskyet Delvis overskyet
Trykk 1014.56 (hPa) - 29.96 (inHg)
Sikt 10 (mil) - 16.1 (km)
Flyplass
Flyplass-kode KILM

Plassering: Wilmington International Airport
Avstand: 10 (mi)

Metar:
KILM 300253Z AUTO 00000KT 10SM FEW085 24/18 A2996 RMK AO2 SLP146 T02390178 51008

Tid: 2024-05-29 22:53 EDT